Time;durP1;ratioP1;P1;durP2;ratioP2;P2;SDS_P1;SDS_P2;PMS_P1;PMS_P2;Temp;Humidity;BMP_temperature;BMP_pressure;BME280_temperature;BME280_humidity;BME280_pressure;Samples;Min_cycle;Max_cycle;Signal;HPM_P1;HPM_P2
2023/04/27 00:02:21;;;;;;;11.32;4.22;;;;;;;;;;4990006;28;20027;-79
2023/04/27 00:04:48;;;;;;;8.05;4.72;;;;;;;;;;4988771;28;20105;-77
2023/04/27 00:07:15;;;;;;;11.32;4.13;;;;;;;;;;4988088;28;20053;-79
2023/04/27 00:09:41;;;;;;;8.73;4.47;;;;;;;;;;4993861;28;20404;-81
2023/04/27 00:12:10;;;;;;;9.05;4.63;;;;;;;;;;4989242;28;20037;-78
2023/04/27 00:14:36;;;;;;;11.15;5.10;;;;;;;;;;4993756;28;20022;-78
2023/04/27 00:17:02;;;;;;;13.52;5.20;;;;;;;;;;4978331;28;20038;-79
2023/04/27 00:19:31;;;;;;;7.13;4.07;;;;;;;;;;4978834;28;20089;-78
2023/04/27 00:21:58;;;;;;;12.35;4.97;;;;;;;;;;4980912;28;20506;-80
2023/04/27 00:24:25;;;;;;;10.43;4.30;;;;;;;;;;4994507;28;20057;-78
2023/04/27 00:26:54;;;;;;;10.23;4.70;;;;;;;;;;4969899;28;20093;-78
2023/04/27 00:29:24;;;;;;;9.82;4.28;;;;;;;;;;4973770;28;20057;-80
2023/04/27 00:32:15;;;;;;;12.63;4.75;;;;;;;;;;4998673;28;20042;-79
2023/04/27 00:34:44;;;;;;;10.30;4.20;;;;;;;;;;4957325;28;20077;-80
2023/04/27 00:40:07;;;;;;;8.45;4.65;;;;;;;;;;5145778;22;20518;-79
2023/04/27 00:42:33;;;;;;;6.18;4.45;;;;;;;;;;4973465;28;20114;-79
2023/04/27 00:45:01;;;;;;;12.02;4.72;;;;;;;;;;4996485;28;20400;-78
2023/04/27 00:47:49;;;;;;;8.15;3.72;;;;;;;;;;4957355;28;20167;-80
2023/04/27 00:50:29;;;;;;;9.13;4.28;;;;;;;;;;4968622;28;20401;-79
2023/04/27 00:53:06;;;;;;;10.43;4.38;;;;;;;;;;4944399;29;20561;-80
2023/04/27 00:59:15;;;;;;;10.50;5.30;;;;;;;;;;4947392;29;20030;-80
2023/04/27 01:02:19;;;;;;;10.85;5.53;;;;;;;;;;4955542;29;20083;-81
2023/04/27 01:05:03;;;;;;;14.80;6.45;;;;;;;;;;4954850;29;20040;-80
2023/04/27 01:07:29;;;;;;;9.63;4.80;;;;;;;;;;4935392;29;20051;-79
2023/04/27 01:09:56;;;;;;;9.70;4.55;;;;;;;;;;4921020;29;20063;-80
2023/04/27 01:12:22;;;;;;;11.50;5.68;;;;;;;;;;4956289;28;20046;-80
2023/04/27 01:14:50;;;;;;;11.75;5.07;;;;;;;;;;4992617;28;20400;-80
2023/04/27 01:17:18;;;;;;;10.63;5.28;;;;;;;;;;4987353;28;20031;-80
2023/04/27 01:19:48;;;;;;;9.85;4.93;;;;;;;;;;4967369;28;20019;-80
2023/04/27 01:22:15;;;;;;;12.55;4.50;;;;;;;;;;4965072;28;20023;-79
2023/04/27 01:24:41;;;;;;;9.27;4.80;;;;;;;;;;4991011;28;20026;-80
2023/04/27 01:27:11;;;;;;;12.43;4.55;;;;;;;;;;4990270;28;20564;-80
2023/04/27 01:29:39;;;;;;;11.70;5.18;;;;;;;;;;4978891;28;20034;-79
2023/04/27 01:32:05;;;;;;;9.30;4.88;;;;;;;;;;5000530;28;20037;-79
2023/04/27 01:34:32;;;;;;;9.35;5.18;;;;;;;;;;4998282;28;20049;-80
2023/04/27 01:36:58;;;;;;;10.73;5.22;;;;;;;;;;4972650;28;20046;-79
2023/04/27 01:39:24;;;;;;;11.52;5.30;;;;;;;;;;4976602;28;20037;-80
2023/04/27 01:41:50;;;;;;;10.30;5.20;;;;;;;;;;4990313;28;20051;-80
2023/04/27 01:44:19;;;;;;;8.93;4.70;;;;;;;;;;4969538;28;20050;-78
2023/04/27 01:46:46;;;;;;;10.57;5.22;;;;;;;;;;4993860;28;20055;-79
2023/04/27 01:49:12;;;;;;;10.02;4.90;;;;;;;;;;4991201;28;20027;-79
2023/04/27 01:51:38;;;;;;;13.32;4.40;;;;;;;;;;4987857;28;20106;-79
2023/04/27 01:54:05;;;;;;;9.60;4.80;;;;;;;;;;4986096;28;20034;-81
2023/04/27 01:56:31;;;;;;;8.63;4.18;;;;;;;;;;4978647;28;20035;-80
2023/04/27 01:59:01;;;;;;;8.93;5.05;;;;;;;;;;4982960;28;20023;-80
2023/04/27 02:01:27;;;;;;;10.38;5.63;;;;;;;;;;4988976;28;20026;-82
2023/04/27 02:03:54;;;;;;;11.70;5.50;;;;;;;;;;4970855;28;20039;-82
2023/04/27 02:06:20;;;;;;;11.10;4.68;;;;;;;;;;4983042;28;20026;-80
2023/04/27 02:08:48;;;;;;;11.65;4.60;;;;;;;;;;4976920;28;20057;-79
2023/04/27 02:11:16;;;;;;;10.82;4.40;;;;;;;;;;4980465;28;20097;-80
2023/04/27 02:13:42;;;;;;;8.85;4.15;;;;;;;;;;4986459;28;20034;-79
2023/04/27 02:16:08;;;;;;;7.95;3.80;;;;;;;;;;4988094;28;20141;-81
2023/04/27 02:18:37;;;;;;;9.02;4.03;;;;;;;;;;4977029;28;20030;-80
2023/04/27 02:21:17;;;;;;;8.30;4.45;;;;;;;;;;5007811;28;20045;-80
2023/04/27 02:23:50;;;;;;;7.55;3.97;;;;;;;;;;4990229;28;20045;-81
2023/04/27 02:26:36;;;;;;;7.60;3.90;;;;;;;;;;4948248;29;20027;-82
2023/04/27 02:29:04;;;;;;;7.97;3.95;;;;;;;;;;5012913;28;20052;-80
2023/04/27 02:31:30;;;;;;;9.25;4.55;;;;;;;;;;4991676;28;20052;-81
2023/04/27 02:33:56;;;;;;;9.13;4.10;;;;;;;;;;4989118;28;20043;-80
2023/04/27 02:36:23;;;;;;;8.65;4.03;;;;;;;;;;4987069;28;20040;-79
2023/04/27 02:38:50;;;;;;;8.45;3.90;;;;;;;;;;4974962;28;20449;-80
2023/04/27 02:41:16;;;;;;;9.38;4.10;;;;;;;;;;4969953;28;20061;-82
2023/04/27 02:43:42;;;;;;;10.15;4.50;;;;;;;;;;4970587;28;20023;-80
2023/04/27 02:46:11;;;;;;;7.53;3.83;;;;;;;;;;4974138;28;20105;-80
2023/04/27 02:48:40;;;;;;;7.18;3.67;;;;;;;;;;4966435;28;20031;-79
2023/04/27 02:51:12;;;;;;;8.70;3.95;;;;;;;;;;4986337;28;20485;-80
2023/04/27 02:53:38;;;;;;;10.77;4.90;;;;;;;;;;4986326;28;20053;-81
2023/04/27 02:56:04;;;;;;;12.27;5.43;;;;;;;;;;4984562;28;20037;-80
2023/04/27 02:58:31;;;;;;;11.50;4.88;;;;;;;;;;4977882;28;20030;-79
2023/04/27 03:00:57;;;;;;;8.85;4.95;;;;;;;;;;4989372;28;20030;-80
2023/04/27 03:03:27;;;;;;;10.63;4.80;;;;;;;;;;4990285;28;20023;-78
2023/04/27 03:05:56;;;;;;;10.15;4.97;;;;;;;;;;4976428;28;20031;-79
2023/04/27 03:08:22;;;;;;;12.25;4.80;;;;;;;;;;5011523;23;20053;-87
2023/04/27 03:10:48;;;;;;;12.18;4.60;;;;;;;;;;5014692;28;20053;-86
2023/04/27 03:13:14;;;;;;;8.38;4.70;;;;;;;;;;5011565;28;20042;-87
2023/04/27 03:15:40;;;;;;;11.05;4.13;;;;;;;;;;5009515;28;20026;-88
2023/04/27 03:18:06;;;;;;;6.97;4.03;;;;;;;;;;5009656;28;20014;-85
2023/04/27 03:20:32;;;;;;;7.32;4.13;;;8.30;99.90;;;;;;5001702;28;20014;-89
2023/04/27 03:22:58;;;;;;;11.00;4.40;;;;;;;;;;4987006;28;20035;-87
2023/04/27 03:25:24;;;;;;;8.63;4.00;;;;;;;;;;4991081;28;20029;-85
2023/04/27 03:27:50;;;;;;;8.23;4.13;;;;;;;;;;4990750;28;20026;-85
2023/04/27 03:30:16;;;;;;;9.48;4.60;;;;;;;;;;5000100;28;20006;-86
2023/04/27 03:32:42;;;;;;;10.15;4.13;;;;;;;;;;4993339;28;20128;-85
2023/04/27 03:35:08;;;;;;;8.38;4.28;;;8.30;99.90;;;;;;4993369;28;20060;-87
2023/04/27 03:37:34;;;;;;;12.70;4.15;;;;;;;;;;4991365;28;20034;-87
2023/04/27 03:40:00;;;;;;;6.53;4.20;;;;;;;;;;4990737;28;20043;-84
2023/04/27 03:42:27;;;;;;;8.10;3.63;;;;;;;;;;4994999;28;20041;-86
2023/04/27 03:44:53;;;;;;;7.97;4.15;;;;;;;;;;4991328;28;20031;-88
2023/04/27 03:47:19;;;;;;;7.75;4.50;;;;;;;;;;4996679;28;20048;-86
2023/04/27 03:49:45;;;;;;;9.98;3.88;;;;;;;;;;4995859;28;20011;-86
2023/04/27 03:52:11;;;;;;;8.63;4.28;;;;;;;;;;5012247;28;20034;-87
2023/04/27 03:54:37;;;;;;;9.32;4.30;;;;;;;;;;4992431;28;20065;-87
2023/04/27 03:57:04;;;;;;;8.60;4.10;;;;;;;;;;4991273;28;20022;-87
2023/04/27 03:59:29;;;;;;;7.78;4.22;;;8.20;99.90;;;;;;5013383;28;20018;-86
2023/04/27 04:01:56;;;;;;;11.70;4.20;;;;;;;;;;5005982;28;20022;-86
2023/04/27 04:04:22;;;;;;;15.43;4.60;;;;;;;;;;5008469;28;20030;-87
2023/04/27 04:06:48;;;;;;;8.25;4.10;;;8.20;99.90;;;;;;4998605;28;20053;-90
2023/04/27 04:09:14;;;;;;;10.75;4.22;;;;;;;;;;4997253;28;20035;-86
2023/04/27 04:11:39;;;;;;;7.82;4.18;;;8.10;99.90;;;;;;4999141;28;20049;-87
2023/04/27 04:14:05;;;;;;;6.57;4.07;;;;;;;;;;4990909;28;20065;-87
2023/04/27 04:16:33;;;;;;;9.52;4.60;;;8.10;99.90;;;;;;5008807;28;20029;-88
2023/04/27 04:18:58;;;;;;;8.55;4.40;;;8.00;99.90;;;;;;4996796;28;20076;-87
2023/04/27 04:21:24;;;;;;;6.53;4.18;;;;;;;;;;5013508;28;20038;-87
2023/04/27 04:23:50;;;;;;;8.93;4.70;;;;;;;;;;5011894;28;20036;-90
2023/04/27 04:26:16;;;;;;;7.65;4.03;;;;;;;;;;4999534;28;20011;-90
2023/04/27 04:28:43;;;;;;;9.27;4.80;;;;;;;;;;4999186;28;20090;-87
2023/04/27 04:31:09;;;;;;;8.95;4.15;;;;;;;;;;4995568;28;20026;-88
2023/04/27 04:33:35;;;;;;;8.27;4.20;;;;;;;;;;5014867;28;20093;-89
2023/04/27 04:36:04;;;;;;;10.98;5.03;;;7.80;99.90;;;;;;4993449;28;20018;-88
2023/04/27 04:38:31;;;;;;;10.77;4.50;;;;;;;;;;5016849;28;20018;-86
2023/04/27 04:40:58;;;;;;;10.68;4.50;;;;;;;;;;4998852;28;20011;-87
2023/04/27 04:43:23;;;;;;;9.63;4.65;;;;;;;;;;5014778;28;20041;-89
2023/04/27 04:45:50;;;;;;;11.80;4.30;;;;;;;;;;5008398;28;20034;-85
2023/04/27 04:48:16;;;;;;;8.73;3.83;;;;;;;;;;4991644;28;20034;-89
2023/04/27 04:50:42;;;;;;;9.48;4.70;;;;;;;;;;4987137;28;21009;-86
2023/04/27 04:53:08;;;;;;;8.93;4.10;;;;;;;;;;4991631;28;20039;-86
2023/04/27 04:55:34;;;;;;;11.38;4.15;;;;;;;;;;5009247;28;20030;-86
2023/04/27 04:58:00;;;;;;;11.15;4.50;;;;;;;;;;5010328;28;20022;-87
2023/04/27 05:00:26;;;;;;;10.68;4.25;;;;;;;;;;4994214;28;20042;-88
2023/04/27 05:02:52;;;;;;;9.32;4.10;;;;;;;;;;4998043;28;20021;-86
2023/04/27 05:05:18;;;;;;;8.48;4.72;;;;;;;;;;5006581;28;20023;-87
2023/04/27 05:07:44;;;;;;;9.82;3.42;;;;;;;;;;4996027;28;20031;-88
2023/04/27 05:10:11;;;;;;;7.60;3.90;;;;;;;;;;4996650;28;20038;-88
2023/04/27 05:12:37;;;;;;;7.00;3.20;;;;;;;;;;5013004;28;20018;-86
2023/04/27 05:15:03;;;;;;;9.02;3.90;;;;;;;;;;4993409;28;20038;-86
2023/04/27 05:17:29;;;;;;;9.43;3.75;;;;;;;;;;5002924;28;20033;-86
2023/04/27 05:19:55;;;;;;;8.77;4.68;;;;;;;;;;5008352;28;20025;-88
2023/04/27 05:22:21;;;;;;;7.35;3.78;;;;;;;;;;4990581;28;20014;-85
2023/04/27 05:24:47;;;;;;;10.50;4.15;;;;;;;;;;5012762;28;20946;-89
2023/04/27 05:27:16;;;;;;;30.35;5.53;;;;;;;;;;4999581;28;20054;-87
2023/04/27 05:29:42;;;;;;;11.82;4.35;;;;;;;;;;4992970;28;20018;-88
2023/04/27 05:32:08;;;;;;;9.48;4.00;;;;;;;;;;4993774;28;20018;-85
2023/04/27 05:34:35;;;;;;;8.35;3.70;;;;;;;;;;4996511;28;20050;-88
2023/04/27 05:37:01;;;;;;;8.43;3.97;;;;;;;;;;5013513;28;20022;-86
2023/04/27 05:39:29;;;;;;;7.43;3.80;;;;;;;;;;5003642;28;20019;-88
2023/04/27 05:41:56;;;;;;;12.00;4.22;;;;;;;;;;4991382;28;20019;-86
2023/04/27 05:44:24;;;;;;;15.45;4.35;;;;;;;;;;4995306;28;20052;-88
2023/04/27 05:46:50;;;;;;;7.80;4.70;;;;;;;;;;5010905;28;20040;-87
2023/04/27 05:49:16;;;;;;;11.05;5.00;;;8.20;99.90;;;;;;5014861;28;20029;-86
2023/04/27 05:51:42;;;;;;;12.82;4.45;;;;;;;;;;4991335;28;20094;-86
2023/04/27 05:54:08;;;;;;;9.98;4.65;;;;;;;;;;4994644;28;20042;-89
2023/04/27 05:56:34;;;;;;;11.02;4.22;;;;;;;;;;5022848;28;20023;-86
2023/04/27 05:59:00;;;;;;;9.13;4.82;;;;;;;;;;5013603;28;20034;-87
2023/04/27 06:01:26;;;;;;;10.30;4.90;;;;;;;;;;4992434;28;20076;-89
2023/04/27 06:03:52;;;;;;;9.30;4.63;;;;;;;;;;4989175;28;20041;-88
2023/04/27 06:06:18;;;;;;;7.05;3.72;;;;;;;;;;4994992;28;20014;-86
2023/04/27 06:08:45;;;;;;;9.18;3.92;;;;;;;;;;4993169;28;20098;-87
2023/04/27 06:11:14;;;;;;;5.32;3.35;;;8.80;99.90;;;;;;4999030;28;20010;-85
2023/04/27 06:13:40;;;;;;;9.00;3.55;;;;;;;;;;4995127;28;20040;-84
2023/04/27 06:16:06;;;;;;;7.40;3.28;;;;;;;;;;4981675;28;20014;-87
2023/04/27 06:18:32;;;;;;;8.90;3.58;;;;;;;;;;5013773;28;20077;-89
2023/04/27 06:21:00;;;;;;;11.25;3.45;;;9.20;99.90;;;;;;4996902;28;20100;-87
2023/04/27 06:23:26;;;;;;;6.65;3.03;;;;;;;;;;4990971;28;20037;-88
2023/04/27 06:25:55;;;;;;;9.60;3.08;;;;;;;;;;5015102;28;20034;-86
2023/04/27 06:28:21;;;;;;;11.85;3.63;;;;;;;;;;5013935;28;20095;-89
2023/04/27 06:30:47;;;;;;;9.30;3.30;;;;;;;;;;5009432;28;20051;-85
2023/04/27 06:33:12;;;;;;;5.97;2.97;;;9.80;99.90;;;;;;4990545;28;20065;-87
2023/04/27 06:35:38;;;;;;;7.32;3.70;;;9.90;99.90;;;;;;4997194;28;20050;-88
2023/04/27 06:38:06;;;;;;;6.55;3.00;;;9.80;99.90;;;;;;4991425;28;20018;-86
2023/04/27 06:40:36;;;;;;;8.32;3.38;;;;;;;;;;4997150;28;20086;-89
2023/04/27 06:43:02;;;;;;;8.93;3.55;;;;;;;;;;4985936;28;20018;-86
2023/04/27 06:45:28;;;;;;;7.80;3.67;;;10.00;99.90;;;;;;5009742;28;20030;-89
2023/04/27 06:47:54;;;;;;;9.70;3.42;;;;;;;;;;4998504;28;20015;-86
2023/04/27 06:50:20;;;;;;;11.75;4.15;;;;;;;;;;4997509;28;20018;-87
2023/04/27 06:52:46;;;;;;;8.15;3.85;;;;;;;;;;5008659;28;20022;-87
2023/04/27 06:55:12;;;;;;;7.03;3.50;;;;;;;;;;4995981;28;20026;-85
2023/04/27 06:57:38;;;;;;;10.43;3.75;;;;;;;;;;5007469;28;20091;-86
2023/04/27 07:00:04;;;;;;;6.57;3.55;;;;;;;;;;4998037;28;20007;-88
2023/04/27 07:02:30;;;;;;;8.18;3.70;;;;;;;;;;5006874;28;20026;-85
2023/04/27 07:04:56;;;;;;;6.95;3.50;;;;;;;;;;4993307;28;20019;-86
2023/04/27 07:07:22;;;;;;;7.93;3.70;;;;;;;;;;5012662;28;20033;-88
2023/04/27 07:09:48;;;;;;;7.95;3.90;;;;;;;;;;4993144;28;20248;-89
2023/04/27 07:12:17;;;;;;;6.85;4.00;;;;;;;;;;4992140;28;20022;-87
2023/04/27 07:14:42;;;;;;;9.50;3.55;;;11.10;99.90;;;;;;4994378;28;20047;-87
2023/04/27 07:17:08;;;;;;;8.75;3.65;;;;;;;;;;4996323;28;20097;-86
2023/04/27 07:19:35;;;;;;;7.75;3.88;;;11.20;99.90;;;;;;4995195;28;20318;-87
2023/04/27 07:22:02;;;;;;;13.13;4.20;;;;;;;;;;5007936;28;20034;-87
2023/04/27 07:24:28;;;;;;;11.43;4.00;;;;;;;;;;5004691;28;20136;-87
2023/04/27 07:26:58;;;;;;;8.07;3.72;;;;;;;;;;4996675;28;20030;-88
2023/04/27 07:29:27;;;;;;;7.93;3.22;;;11.60;99.90;;;;;;4990301;28;20029;-88
2023/04/27 07:31:54;;;;;;;9.23;3.53;;;11.60;99.90;;;;;;5014076;28;20086;-87
2023/04/27 07:34:20;;;;;;;9.73;3.28;;;;;;;;;;5014182;28;20050;-86
2023/04/27 07:36:46;;;;;;;10.43;3.92;;;;;;;;;;4990978;28;20082;-87
2023/04/27 07:39:12;;;;;;;8.40;3.20;;;;;;;;;;5011308;28;20022;-87
2023/04/27 07:41:38;;;;;;;6.75;2.90;;;;;;;;;;4995886;28;20025;-86
2023/04/27 07:44:04;;;;;;;9.05;3.58;;;;;;;;;;4990725;28;20429;-88
2023/04/27 07:46:31;;;;;;;10.63;4.20;;;11.80;99.90;;;;;;4994538;28;20034;-89
2023/04/27 07:48:58;;;;;;;17.73;7.05;;;;;;;;;;5007963;28;20019;-87
2023/04/27 07:51:27;;;;;;;7.53;3.25;;;11.90;99.90;;;;;;4993894;28;20049;-87
2023/04/27 07:53:53;;;;;;;6.97;3.45;;;;;;;;;;5013009;28;20046;-87
2023/04/27 07:56:19;;;;;;;8.48;3.22;;;12.10;99.90;;;;;;4992489;28;20026;-90
2023/04/27 07:58:45;;;;;;;6.93;2.97;;;12.10;99.90;;;;;;4993495;28;20086;-88
2023/04/27 08:01:11;;;;;;;7.28;3.20;;;;;;;;;;4993306;28;20022;-84
2023/04/27 08:03:37;;;;;;;6.75;3.50;;;;;;;;;;4994042;28;20045;-87
2023/04/27 08:06:03;;;;;;;8.98;3.22;;;;;;;;;;4979695;28;20046;-88
2023/04/27 08:08:29;;;;;;;10.13;3.38;;;;;;;;;;4992087;28;20033;-85
2023/04/27 08:10:55;;;;;;;6.70;3.00;;;;;;;;;;5014521;28;20057;-87
2023/04/27 08:13:21;;;;;;;6.88;3.25;;;;;;;;;;5008062;28;20026;-88
2023/04/27 08:15:47;;;;;;;10.48;4.43;;;;;;;;;;5008398;28;20043;-86
2023/04/27 08:18:13;;;;;;;9.70;4.22;;;;;;;;;;4993085;28;20013;-88
2023/04/27 08:20:39;;;;;;;7.43;3.13;;;;;;;;;;5014162;28;20088;-87
2023/04/27 08:23:05;;;;;;;9.48;3.17;;;;;;;;;;4977217;28;20019;-88
2023/04/27 08:25:31;;;;;;;11.65;3.63;;;;;;;;;;5014381;28;20038;-86
2023/04/27 08:27:57;;;;;;;10.25;3.63;;;;;;;;;;4989496;28;20039;-86
2023/04/27 08:30:23;;;;;;;7.88;3.70;;;;;;;;;;4995258;28;20040;-87
2023/04/27 08:32:50;;;;;;;6.35;2.92;;;;;;;;;;4988887;28;20029;-86
2023/04/27 08:35:16;;;;;;;6.53;3.05;;;;;;;;;;4995632;28;20037;-88
2023/04/27 08:37:42;;;;;;;6.70;2.85;;;;;;;;;;5012180;28;20479;-88
2023/04/27 08:40:09;;;;;;;8.68;3.10;;;;;;;;;;4989518;28;20092;-89
2023/04/27 08:42:35;;;;;;;6.72;3.38;;;13.70;98.60;;;;;;4993412;28;20054;-88
2023/04/27 08:45:01;;;;;;;8.73;3.13;;;13.80;98.30;;;;;;4990694;28;20022;-87
2023/04/27 08:47:27;;;;;;;7.45;3.15;;;;;;;;;;4990564;28;20015;-88
2023/04/27 08:49:53;;;;;;;5.63;2.83;;;;;;;;;;5003327;28;20023;-86
2023/04/27 08:52:19;;;;;;;5.95;2.80;;;;;;;;;;5007808;28;20118;-88
2023/04/27 08:54:45;;;;;;;7.88;3.10;;;;;;;;;;5010703;28;20046;-87
2023/04/27 08:57:15;;;;;;;9.30;2.80;;;14.20;96.60;;;;;;4994482;28;20045;-87
2023/04/27 08:59:41;;;;;;;7.63;2.78;;;;;;;;;;5012395;28;20050;-88
2023/04/27 09:02:18;;;;;;;6.03;2.80;;;14.60;96.40;;;;;;4991147;28;20026;-87
2023/04/27 09:04:46;;;;;;;5.75;2.90;;;14.90;95.90;;;;;;5015730;28;20014;-90
2023/04/27 09:07:16;;;;;;;7.95;3.45;;;15.10;95.90;;;;;;4998419;28;20025;-87
2023/04/27 09:09:43;;;;;;;8.88;2.90;;;15.20;95.10;;;;;;4994513;28;20026;-88
2023/04/27 09:12:20;;;;;;;5.78;2.78;;;15.10;94.50;;;;;;5010807;28;20030;-84
2023/04/27 09:14:58;;;;;;;8.40;2.95;;;15.20;93.70;;;;;;5009010;28;20065;-88
2023/04/27 09:17:26;;;;;;;7.78;3.00;;;15.10;93.80;;;;;;4993716;28;20101;-87
2023/04/27 09:19:52;;;;;;;6.28;2.90;;;;;;;;;;5008578;28;20041;-87
2023/04/27 09:22:18;;;;;;;4.78;2.20;;;;;;;;;;4991465;28;20030;-90
2023/04/27 09:24:51;;;;;;;6.47;2.20;;;15.40;92.00;;;;;;5007449;28;20036;-90
2023/04/27 09:27:20;;;;;;;5.47;2.22;;;15.30;91.90;;;;;;4991653;28;20027;-87
2023/04/27 09:29:47;;;;;;;5.07;2.27;;;;;;;;;;4988842;28;20031;-88
2023/04/27 09:32:19;;;;;;;5.72;2.25;;;15.50;92.00;;;;;;4996086;28;20277;-87
2023/04/27 09:34:45;;;;;;;40.20;24.27;;;;;;;;;;4986101;28;20026;-88
2023/04/27 09:37:13;;;;;;;5.63;3.58;;;;;;;;;;5007909;28;20038;-88
2023/04/27 09:39:39;;;;;;;6.13;2.78;;;;;;;;;;4984168;28;20050;-88
2023/04/27 09:42:05;;;;;;;7.72;3.10;;;;;;;;;;4988143;28;20035;-87
2023/04/27 09:44:32;;;;;;;7.25;2.75;;;16.20;90.90;;;;;;4988171;28;20038;-87
2023/04/27 09:46:59;;;;;;;4.07;2.47;;;16.30;90.10;;;;;;4990871;28;20015;-87
2023/04/27 09:49:26;;;;;;;8.35;3.30;;;16.20;90.50;;;;;;4984588;28;20057;-87
2023/04/27 09:51:53;;;;;;;5.32;2.97;;;;;;;;;;4988383;28;20599;-90
2023/04/27 09:54:22;;;;;;;6.10;2.70;;;16.40;90.30;;;;;;4986470;28;20050;-89
2023/04/27 09:56:58;;;;;;;5.72;2.55;;;16.30;89.10;;;;;;5007704;28;20053;-90
2023/04/27 09:59:25;;;;;;;6.15;2.50;;;;;;;;;;5007941;28;20053;-88
2023/04/27 10:01:55;;;;;;;4.85;2.70;;;16.20;89.30;;;;;;5003204;28;20142;-89
2023/04/27 10:04:52;;;;;;;6.05;2.70;;;16.20;89.30;;;;;;4993566;28;20034;-88
2023/04/27 10:07:18;;;;;;;7.43;2.80;;;;;;;;;;4981353;28;20102;-91
2023/04/27 10:09:46;;;;;;;5.53;2.88;;;16.40;88.90;;;;;;4981935;28;20045;-90
2023/04/27 10:12:17;;;;;;;8.57;2.80;;;16.40;87.90;;;;;;4980624;28;20030;-88
2023/04/27 10:15:10;;;;;;;7.57;2.70;;;16.50;88.20;;;;;;5000995;28;20117;-90
2023/04/27 10:17:36;;;;;;;7.50;2.60;;;;;;;;;;4987253;28;20014;-88
2023/04/27 10:20:06;;;;;;;6.38;3.20;;;16.90;86.40;;;;;;5001249;28;20042;-87
2023/04/27 10:22:46;;;;;;;5.75;2.72;;;17.00;86.00;;;;;;4989195;28;20026;-88
2023/04/27 10:25:20;;;;;;;6.13;2.47;;;17.00;84.70;;;;;;5003797;28;20037;-87
2023/04/27 10:27:54;;;;;;;6.00;2.50;;;17.00;84.60;;;;;;4985186;28;20026;-88
2023/04/27 10:30:20;;;;;;;7.00;2.70;;;;;;;;;;4987053;28;20034;-88
2023/04/27 10:33:10;;;;;;;7.30;2.63;;;17.10;83.90;;;;;;4990420;28;20034;-89
2023/04/27 10:35:38;;;;;;;5.72;2.70;;;17.00;84.00;;;;;;4992682;28;20042;-89
2023/04/27 10:38:28;;;;;;;4.57;2.08;;;17.10;83.70;;;;;;4992248;28;20017;-88
2023/04/27 10:41:03;;;;;;;6.00;2.78;;;17.30;82.80;;;;;;4964741;28;20033;-89
2023/04/27 10:43:31;;;;;;;6.43;2.40;;;17.50;82.40;;;;;;4994606;28;20042;-89
2023/04/27 10:46:13;;;;;;;5.10;2.88;;;17.70;82.20;;;;;;5009432;28;20042;-90
2023/04/27 10:48:42;;;;;;;8.25;3.08;;;;;;;;;;4975776;28;20027;-89
2023/04/27 10:51:08;;;;;;;8.55;3.33;;;;;;;;;;4993088;28;20026;-88
2023/04/27 10:53:34;;;;;;;9.20;3.10;;;;;;;;;;4989140;28;20057;-88
2023/04/27 10:56:00;;;;;;;4.55;2.47;;;;;;;;;;4988254;28;20481;-87
2023/04/27 10:58:26;;;;;;;6.35;3.05;;;;;;;;;;5006164;28;20042;-86
2023/04/27 11:00:52;;;;;;;6.30;2.75;;;;;;;;;;5002104;28;20027;-88
2023/04/27 11:03:21;;;;;;;5.60;2.70;;;;;;;;;;4990192;28;20045;-88
2023/04/27 11:05:48;;;;;;;4.43;2.42;;;18.10;78.80;;;;;;4990817;28;20049;-87
2023/04/27 11:08:20;;;;;;;4.45;2.28;;;;;;;;;;5003269;28;20034;-88
2023/04/27 11:10:50;;;;;;;5.55;2.30;;;;;;;;;;4999178;28;20081;-89
2023/04/27 11:13:19;;;;;;;5.03;2.42;;;18.40;79.10;;;;;;5005467;28;20036;-89
2023/04/27 11:15:47;;;;;;;7.40;2.50;;;18.30;77.50;;;;;;4988170;28;20032;-90
2023/04/27 11:18:14;;;;;;;4.78;2.30;;;;;;;;;;4994197;28;20030;-88
2023/04/27 11:20:40;;;;;;;4.93;2.30;;;;;;;;;;4991820;28;20305;-90
2023/04/27 11:23:09;;;;;;;5.43;2.38;;;;;;;;;;5006560;28;20185;-90
2023/04/27 11:25:35;;;;;;;4.28;2.10;;;;;;;;;;4985687;28;20030;-91
2023/04/27 11:28:01;;;;;;;6.28;2.15;;;;;;;;;;4987507;28;20027;-89
2023/04/27 11:30:27;;;;;;;4.40;2.50;;;;;;;;;;4986174;28;20049;-88
2023/04/27 11:32:56;;;;;;;5.15;2.80;;;;;;;;;;5006365;28;20097;-89
2023/04/27 11:35:34;;;;;;;6.05;2.67;;;18.70;77.30;;;;;;4983469;28;20377;-88
2023/04/27 11:38:01;;;;;;;5.55;2.53;;;;;;;;;;4987593;28;20037;-90
2023/04/27 11:40:29;;;;;;;5.13;2.20;;;;;;;;;;5006920;28;20045;-90
2023/04/27 11:43:02;;;;;;;6.53;2.47;;;18.60;77.50;;;;;;4986352;28;20268;-88
2023/04/27 11:45:27;;;;;;;5.32;2.10;;;;;;;;;;5003550;28;20038;-89
2023/04/27 11:47:54;;;;;;;3.30;1.88;;;;;;;;;;4985139;28;20385;-89
2023/04/27 11:50:23;;;;;;;6.25;2.58;;;19.20;75.90;;;;;;4984363;28;20038;-89
2023/04/27 11:52:49;;;;;;;3.85;2.22;;;;;;;;;;4981431;28;20107;-90
2023/04/27 11:55:15;;;;;;;4.43;2.28;;;;;;;;;;4966461;28;20022;-89
2023/04/27 11:57:42;;;;;;;6.55;2.40;;;;;;;;;;4979880;28;20442;-88
2023/04/27 12:00:13;;;;;;;6.05;3.08;;;;;;;;;;4979805;28;20045;-90
2023/04/27 12:02:39;;;;;;;4.50;2.40;;;;;;;;;;4980514;28;20026;-88
2023/04/27 12:05:08;;;;;;;5.18;2.40;;;18.90;78.30;;;;;;4977490;28;20444;-88
2023/04/27 12:07:34;;;;;;;6.60;2.58;;;;;;;;;;4980702;28;20344;-87
2023/04/27 12:10:00;;;;;;;6.07;2.70;;;;;;;;;;5000420;28;20034;-88
2023/04/27 12:12:26;;;;;;;5.63;2.20;;;;;;;;;;4975114;28;20090;-89
2023/04/27 12:14:52;;;;;;;3.90;1.92;;;;;;;;;;4980320;28;20057;-89
2023/04/27 12:17:22;;;;;;;3.00;1.50;;;;;;;;;;5000919;28;20030;-89
2023/04/27 12:19:50;;;;;;;5.10;1.90;;;18.50;77.40;;;;;;4986749;28;20011;-89
2023/04/27 12:22:16;;;;;;;5.18;2.00;;;;;;;;;;5003007;28;20023;-89
2023/04/27 12:24:42;;;;;;;5.10;1.88;;;;;;;;;;4983340;28;20030;-89
2023/04/27 12:27:08;;;;;;;5.45;1.92;;;;;;;;;;4985746;28;20034;-90
2023/04/27 12:29:35;;;;;;;5.90;1.90;;;;;;;;;;4973338;28;20392;-88
2023/04/27 12:32:01;;;;;;;3.50;1.60;;;;;;;;;;4983286;28;20062;-90
2023/04/27 12:34:27;;;;;;;4.80;1.77;;;;;;;;;;4988261;28;20030;-89
2023/04/27 12:36:53;;;;;;;5.50;2.25;;;;;;;;;;4988136;28;20058;-91
2023/04/27 12:39:20;;;;;;;5.40;1.65;;;19.60;73.80;;;;;;4990963;28;20057;-90
2023/04/27 12:41:50;;;;;;;3.25;1.67;;;;;;;;;;4980246;28;20545;-88
2023/04/27 12:44:20;;;;;;;2.70;1.70;;;19.60;74.80;;;;;;5004324;28;20022;-89
2023/04/27 12:46:49;;;;;;;4.45;1.60;;;;;;;;;;4999585;28;20023;-89
2023/04/27 12:49:15;;;;;;;5.97;1.50;;;;;;;;;;4984139;28;20061;-89
2023/04/27 12:51:41;;;;;;;3.85;2.05;;;;;;;;;;5003745;28;20053;-91
2023/04/27 12:54:08;;;;;;;3.30;1.42;;;;;;;;;;4999935;28;20042;-90
2023/04/27 12:56:34;;;;;;;3.72;1.52;;;;;;;;;;5002871;28;20019;-89
2023/04/27 12:59:00;;;;;;;4.95;1.55;;;;;;;;;;5003714;28;20038;-89
2023/04/27 13:01:26;;;;;;;5.07;1.95;;;;;;;;;;4980202;28;20114;-90
2023/04/27 13:03:54;;;;;;;3.67;1.90;;;20.10;74.40;;;;;;4993878;28;20046;-91
2023/04/27 13:06:21;;;;;;;4.10;1.90;;;;;;;;;;4989559;28;20045;-90
2023/04/27 13:08:47;;;;;;;4.15;1.80;;;;;;;;;;4996755;28;20026;-88
2023/04/27 13:11:13;;;;;;;4.43;2.00;;;;;;;;;;4992876;28;20043;-87
2023/04/27 13:13:40;;;;;;;5.50;2.00;;;;;;;;;;5012683;28;20442;-89
2023/04/27 13:16:06;;;;;;;4.38;2.42;;;;;;;;;;4988628;28;20041;-90
2023/04/27 13:18:32;;;;;;;6.25;1.90;;;;;;;;;;5002104;28;20038;-91
2023/04/27 13:20:58;;;;;;;6.13;1.70;;;;;;;;;;5000676;28;20023;-90
2023/04/27 13:23:25;;;;;;;2.33;1.30;;;;;;;;;;4986143;28;20038;-89
2023/04/27 13:25:52;;;;;;;5.72;1.52;;;;;;;;;;4987293;28;20034;-92
2023/04/27 13:28:18;;;;;;;5.75;1.70;;;;;;;;;;4999691;28;20034;-88
2023/04/27 13:30:44;;;;;;;2.75;1.73;;;;;;;;;;4994313;28;20500;-90
2023/04/27 13:33:11;;;;;;;3.13;1.70;;;19.10;76.50;;;;;;4969687;28;20061;-91
2023/04/27 13:35:37;;;;;;;3.92;1.70;;;19.00;76.40;;;;;;4997141;28;20026;-90
2023/04/27 13:38:03;;;;;;;5.35;1.83;;;;;;;;;;4978272;28;20088;-91
2023/04/27 13:40:29;;;;;;;5.03;1.90;;;;;;;;;;4985468;28;20027;-91
2023/04/27 13:42:55;;;;;;;5.70;1.92;;;;;;;;;;4999758;28;20022;-91
2023/04/27 13:45:21;;;;;;;3.72;1.67;;;;;;;;;;4984414;28;20029;-88
2023/04/27 13:47:47;;;;;;;4.95;1.70;;;;;;;;;;4982450;28;20043;-90
2023/04/27 13:50:13;;;;;;;3.53;1.73;;;;;;;;;;4965516;28;20049;-89
2023/04/27 13:52:39;;;;;;;3.60;2.00;;;;;;;;;;4984972;28;20602;-89
2023/04/27 13:55:07;;;;;;;5.55;1.80;;;19.50;76.80;;;;;;4986783;28;20042;-89
2023/04/27 13:57:33;;;;;;;4.35;1.60;;;;;;;;;;4985904;28;20434;-90
2023/04/27 14:00:00;;;;;;;3.03;1.48;;;;;;;;;;5004191;28;20026;-90
2023/04/27 14:02:28;;;;;;;3.97;1.40;;;19.20;77.50;;;;;;4989641;28;20026;-90
2023/04/27 14:04:54;;;;;;;3.05;1.52;;;;;;;;;;5006471;28;20054;-89
2023/04/27 14:07:20;;;;;;;3.53;1.70;;;;;;;;;;5007536;28;20042;-89
2023/04/27 14:09:52;;;;;;;4.88;1.80;;;;;;;;;;5007292;28;20038;-89
2023/04/27 14:12:19;;;;;;;4.45;1.60;;;;;;;;;;5006143;28;20036;-90
2023/04/27 14:14:45;;;;;;;2.85;1.50;;;;;;;;;;4988941;28;20042;-90
2023/04/27 14:17:11;;;;;;;4.05;2.25;;;;;;;;;;4993607;28;20022;-89
2023/04/27 14:19:37;;;;;;;2.50;1.15;;;;;;;;;;5004782;28;20061;-90
2023/04/27 14:22:05;;;;;;;4.18;1.48;;;;;;;;;;5014394;28;20030;-91
2023/04/27 14:24:31;;;;;;;2.65;1.27;;;;;;;;;;5009580;28;20022;-90